sensor_id;sensor_type;location;lat;lon;timestamp;P1;durP1;ratioP1;P2;durP2;ratioP2
19235;SDS011;9752;54.270;12.470;2022-10-22T00:00:32;90.87;;;45.30;;
19235;SDS011;9752;54.270;12.470;2022-10-22T00:05:34;52.40;;;34.90;;
19235;SDS011;9752;54.270;12.470;2022-10-22T00:10:38;82.37;;;43.77;;
19235;SDS011;9752;54.270;12.470;2022-10-22T00:15:40;51.90;;;34.10;;
19235;SDS011;9752;54.270;12.470;2022-10-22T00:20:42;57.53;;;34.57;;
19235;SDS011;9752;54.270;12.470;2022-10-22T00:25:45;98.30;;;48.47;;
19235;SDS011;9752;54.270;12.470;2022-10-22T00:30:46;120.90;;;54.37;;
19235;SDS011;9752;54.270;12.470;2022-10-22T00:35:48;123.23;;;58.50;;
19235;SDS011;9752;54.270;12.470;2022-10-22T00:40:51;131.50;;;57.20;;
19235;SDS011;9752;54.270;12.470;2022-10-22T00:45:53;136.17;;;58.70;;
19235;SDS011;9752;54.270;12.470;2022-10-22T00:50:55;66.63;;;38.27;;
19235;SDS011;9752;54.270;12.470;2022-10-22T00:56:01;79.80;;;45.57;;
19235;SDS011;9752;54.270;12.470;2022-10-22T01:01:03;81.17;;;47.43;;
19235;SDS011;9752;54.270;12.470;2022-10-22T01:06:09;83.00;;;47.63;;
19235;SDS011;9752;54.270;12.470;2022-10-22T01:11:18;105.23;;;51.27;;
19235;SDS011;9752;54.270;12.470;2022-10-22T01:16:27;87.43;;;49.80;;
19235;SDS011;9752;54.270;12.470;2022-10-22T01:21:37;91.83;;;47.93;;
19235;SDS011;9752;54.270;12.470;2022-10-22T01:26:51;104.60;;;51.47;;
19235;SDS011;9752;54.270;12.470;2022-10-22T01:32:03;127.60;;;59.13;;
19235;SDS011;9752;54.270;12.470;2022-10-22T01:37:10;113.80;;;55.23;;
19235;SDS011;9752;54.270;12.470;2022-10-22T01:42:14;159.63;;;62.47;;
19235;SDS011;9752;54.270;12.470;2022-10-22T01:47:19;112.77;;;52.43;;
19235;SDS011;9752;54.270;12.470;2022-10-22T01:52:30;102.07;;;50.30;;
19235;SDS011;9752;54.270;12.470;2022-10-22T01:57:47;167.37;;;62.37;;
19235;SDS011;9752;54.270;12.470;2022-10-22T02:02:57;166.90;;;66.43;;
19235;SDS011;9752;54.270;12.470;2022-10-22T02:08:05;116.83;;;55.57;;
19235;SDS011;9752;54.270;12.470;2022-10-22T02:13:11;157.67;;;64.33;;
19235;SDS011;9752;54.270;12.470;2022-10-22T02:18:19;133.70;;;58.27;;
19235;SDS011;9752;54.270;12.470;2022-10-22T02:23:24;152.30;;;63.93;;
19235;SDS011;9752;54.270;12.470;2022-10-22T02:28:28;141.60;;;61.43;;
19235;SDS011;9752;54.270;12.470;2022-10-22T02:33:39;110.53;;;53.17;;
19235;SDS011;9752;54.270;12.470;2022-10-22T02:38:43;163.83;;;67.70;;
19235;SDS011;9752;54.270;12.470;2022-10-22T02:43:48;199.73;;;72.70;;
19235;SDS011;9752;54.270;12.470;2022-10-22T02:48:53;195.70;;;71.87;;
19235;SDS011;9752;54.270;12.470;2022-10-22T02:53:54;142.73;;;58.90;;
19235;SDS011;9752;54.270;12.470;2022-10-22T02:58:56;131.13;;;58.70;;
19235;SDS011;9752;54.270;12.470;2022-10-22T03:03:59;82.10;;;44.87;;
19235;SDS011;9752;54.270;12.470;2022-10-22T03:09:01;130.03;;;54.73;;
19235;SDS011;9752;54.270;12.470;2022-10-22T03:14:03;161.57;;;65.23;;
19235;SDS011;9752;54.270;12.470;2022-10-22T03:19:06;109.83;;;51.70;;
19235;SDS011;9752;54.270;12.470;2022-10-22T03:24:09;75.53;;;43.37;;
19235;SDS011;9752;54.270;12.470;2022-10-22T03:29:13;109.87;;;54.43;;
19235;SDS011;9752;54.270;12.470;2022-10-22T03:34:17;116.53;;;54.73;;
19235;SDS011;9752;54.270;12.470;2022-10-22T03:39:19;92.47;;;48.83;;
19235;SDS011;9752;54.270;12.470;2022-10-22T03:44:22;93.37;;;48.97;;
19235;SDS011;9752;54.270;12.470;2022-10-22T03:49:25;100.33;;;51.87;;
19235;SDS011;9752;54.270;12.470;2022-10-22T03:54:27;108.83;;;51.37;;
19235;SDS011;9752;54.270;12.470;2022-10-22T03:59:32;99.60;;;49.03;;
19235;SDS011;9752;54.270;12.470;2022-10-22T04:04:36;105.10;;;52.03;;
19235;SDS011;9752;54.270;12.470;2022-10-22T04:09:38;140.13;;;60.07;;
19235;SDS011;9752;54.270;12.470;2022-10-22T04:14:39;155.97;;;61.30;;
19235;SDS011;9752;54.270;12.470;2022-10-22T04:19:42;136.97;;;57.70;;
19235;SDS011;9752;54.270;12.470;2022-10-22T04:24:44;85.13;;;46.23;;
19235;SDS011;9752;54.270;12.470;2022-10-22T04:29:46;174.50;;;66.93;;
19235;SDS011;9752;54.270;12.470;2022-10-22T04:34:49;93.67;;;47.07;;
19235;SDS011;9752;54.270;12.470;2022-10-22T04:39:50;122.33;;;54.97;;
19235;SDS011;9752;54.270;12.470;2022-10-22T04:44:52;85.30;;;43.97;;
19235;SDS011;9752;54.270;12.470;2022-10-22T04:49:55;78.60;;;42.63;;
19235;SDS011;9752;54.270;12.470;2022-10-22T04:54:57;74.20;;;40.87;;
19235;SDS011;9752;54.270;12.470;2022-10-22T04:59:58;71.73;;;41.70;;
19235;SDS011;9752;54.270;12.470;2022-10-22T05:05:02;62.17;;;38.77;;
19235;SDS011;9752;54.270;12.470;2022-10-22T05:10:04;103.27;;;51.10;;
19235;SDS011;9752;54.270;12.470;2022-10-22T05:15:06;105.63;;;51.20;;
19235;SDS011;9752;54.270;12.470;2022-10-22T05:20:11;108.37;;;53.43;;
19235;SDS011;9752;54.270;12.470;2022-10-22T05:25:12;68.50;;;40.97;;
19235;SDS011;9752;54.270;12.470;2022-10-22T05:30:14;74.13;;;42.40;;
19235;SDS011;9752;54.270;12.470;2022-10-22T05:35:17;65.70;;;39.93;;
19235;SDS011;9752;54.270;12.470;2022-10-22T05:40:19;109.33;;;49.30;;
19235;SDS011;9752;54.270;12.470;2022-10-22T05:45:21;72.00;;;42.00;;
19235;SDS011;9752;54.270;12.470;2022-10-22T05:50:24;83.43;;;44.73;;
19235;SDS011;9752;54.270;12.470;2022-10-22T05:55:25;70.83;;;41.53;;
19235;SDS011;9752;54.270;12.470;2022-10-22T06:00:27;74.07;;;41.50;;
19235;SDS011;9752;54.270;12.470;2022-10-22T06:05:30;106.60;;;46.03;;
19235;SDS011;9752;54.270;12.470;2022-10-22T06:10:35;129.80;;;53.50;;
19235;SDS011;9752;54.270;12.470;2022-10-22T06:15:38;165.13;;;58.63;;
19235;SDS011;9752;54.270;12.470;2022-10-22T06:20:41;163.97;;;58.40;;
19235;SDS011;9752;54.270;12.470;2022-10-22T06:25:54;157.00;;;55.47;;
19235;SDS011;9752;54.270;12.470;2022-10-22T06:30:56;125.37;;;50.30;;
19235;SDS011;9752;54.270;12.470;2022-10-22T06:36:04;315.93;;;82.83;;
19235;SDS011;9752;54.270;12.470;2022-10-22T06:41:07;56.77;;;34.93;;
19235;SDS011;9752;54.270;12.470;2022-10-22T06:46:10;113.77;;;47.97;;
19235;SDS011;9752;54.270;12.470;2022-10-22T06:51:15;185.90;;;63.80;;
19235;SDS011;9752;54.270;12.470;2022-10-22T06:56:17;84.07;;;45.27;;
19235;SDS011;9752;54.270;12.470;2022-10-22T07:01:22;149.27;;;60.50;;
19235;SDS011;9752;54.270;12.470;2022-10-22T07:06:26;95.03;;;47.90;;
19235;SDS011;9752;54.270;12.470;2022-10-22T07:11:30;153.13;;;62.47;;
19235;SDS011;9752;54.270;12.470;2022-10-22T07:16:37;133.00;;;56.80;;
19235;SDS011;9752;54.270;12.470;2022-10-22T07:21:42;147.37;;;62.30;;
19235;SDS011;9752;54.270;12.470;2022-10-22T07:26:44;147.40;;;62.77;;
19235;SDS011;9752;54.270;12.470;2022-10-22T07:31:45;112.77;;;51.00;;
19235;SDS011;9752;54.270;12.470;2022-10-22T07:36:49;133.80;;;59.13;;
19235;SDS011;9752;54.270;12.470;2022-10-22T07:41:50;134.73;;;57.83;;
19235;SDS011;9752;54.270;12.470;2022-10-22T07:46:52;141.80;;;58.93;;
19235;SDS011;9752;54.270;12.470;2022-10-22T07:51:55;98.60;;;50.17;;
19235;SDS011;9752;54.270;12.470;2022-10-22T07:56:57;115.30;;;53.47;;
19235;SDS011;9752;54.270;12.470;2022-10-22T08:01:58;116.83;;;54.90;;
19235;SDS011;9752;54.270;12.470;2022-10-22T08:07:01;84.67;;;44.47;;
19235;SDS011;9752;54.270;12.470;2022-10-22T08:12:04;117.03;;;54.07;;
19235;SDS011;9752;54.270;12.470;2022-10-22T08:17:06;99.53;;;50.77;;
19235;SDS011;9752;54.270;12.470;2022-10-22T08:22:09;85.23;;;46.67;;
19235;SDS011;9752;54.270;12.470;2022-10-22T08:27:11;113.77;;;56.47;;
19235;SDS011;9752;54.270;12.470;2022-10-22T08:32:12;90.57;;;48.53;;
19235;SDS011;9752;54.270;12.470;2022-10-22T08:37:15;89.13;;;49.33;;
19235;SDS011;9752;54.270;12.470;2022-10-22T08:42:30;84.83;;;44.27;;
19235;SDS011;9752;54.270;12.470;2022-10-22T08:48:02;79.77;;;44.30;;
19235;SDS011;9752;54.270;12.470;2022-10-22T08:53:15;68.47;;;40.33;;
19235;SDS011;9752;54.270;12.470;2022-10-22T08:58:19;74.47;;;42.40;;
19235;SDS011;9752;54.270;12.470;2022-10-22T09:03:34;69.77;;;39.07;;
19235;SDS011;9752;54.270;12.470;2022-10-22T09:08:43;72.87;;;40.27;;
19235;SDS011;9752;54.270;12.470;2022-10-22T09:13:47;67.10;;;38.77;;
19235;SDS011;9752;54.270;12.470;2022-10-22T09:18:52;58.90;;;36.43;;
19235;SDS011;9752;54.270;12.470;2022-10-22T09:24:07;66.17;;;39.00;;
19235;SDS011;9752;54.270;12.470;2022-10-22T09:29:12;60.60;;;37.27;;
19235;SDS011;9752;54.270;12.470;2022-10-22T09:34:21;61.90;;;37.73;;
19235;SDS011;9752;54.270;12.470;2022-10-22T09:39:25;60.57;;;37.47;;
19235;SDS011;9752;54.270;12.470;2022-10-22T09:44:28;56.93;;;35.37;;
19235;SDS011;9752;54.270;12.470;2022-10-22T09:49:34;55.90;;;36.93;;
19235;SDS011;9752;54.270;12.470;2022-10-22T09:54:40;68.27;;;39.43;;
19235;SDS011;9752;54.270;12.470;2022-10-22T09:59:43;63.17;;;35.97;;
19235;SDS011;9752;54.270;12.470;2022-10-22T10:04:51;64.87;;;39.10;;
19235;SDS011;9752;54.270;12.470;2022-10-22T10:09:55;60.63;;;34.97;;
19235;SDS011;9752;54.270;12.470;2022-10-22T10:15:00;59.57;;;35.87;;
19235;SDS011;9752;54.270;12.470;2022-10-22T10:20:12;61.23;;;34.77;;
19235;SDS011;9752;54.270;12.470;2022-10-22T10:25:29;55.03;;;34.03;;
19235;SDS011;9752;54.270;12.470;2022-10-22T10:30:41;52.53;;;32.90;;
19235;SDS011;9752;54.270;12.470;2022-10-22T10:35:51;49.70;;;32.07;;
19235;SDS011;9752;54.270;12.470;2022-10-22T10:41:02;48.83;;;30.97;;
19235;SDS011;9752;54.270;12.470;2022-10-22T10:46:13;47.17;;;30.93;;
19235;SDS011;9752;54.270;12.470;2022-10-22T10:51:26;42.90;;;29.40;;
19235;SDS011;9752;54.270;12.470;2022-10-22T10:56:40;37.73;;;27.00;;
19235;SDS011;9752;54.270;12.470;2022-10-22T11:01:48;36.63;;;26.50;;
19235;SDS011;9752;54.270;12.470;2022-10-22T11:07:00;37.03;;;26.33;;
19235;SDS011;9752;54.270;12.470;2022-10-22T11:12:09;35.90;;;25.17;;
19235;SDS011;9752;54.270;12.470;2022-10-22T11:17:17;36.87;;;23.63;;
19235;SDS011;9752;54.270;12.470;2022-10-22T11:22:24;30.67;;;19.77;;
19235;SDS011;9752;54.270;12.470;2022-10-22T11:27:32;34.30;;;23.97;;
19235;SDS011;9752;54.270;12.470;2022-10-22T11:32:40;29.00;;;21.00;;
19235;SDS011;9752;54.270;12.470;2022-10-22T11:37:44;30.97;;;21.03;;
19235;SDS011;9752;54.270;12.470;2022-10-22T11:42:51;27.33;;;19.67;;
19235;SDS011;9752;54.270;12.470;2022-10-22T11:47:56;25.93;;;19.00;;
19235;SDS011;9752;54.270;12.470;2022-10-22T11:53:00;37.37;;;29.10;;
19235;SDS011;9752;54.270;12.470;2022-10-22T11:58:09;43.17;;;29.80;;
19235;SDS011;9752;54.270;12.470;2022-10-22T12:03:36;43.53;;;30.57;;
19235;SDS011;9752;54.270;12.470;2022-10-22T12:08:40;46.10;;;30.00;;
19235;SDS011;9752;54.270;12.470;2022-10-22T12:13:57;44.70;;;32.00;;
19235;SDS011;9752;54.270;12.470;2022-10-22T12:19:04;45.33;;;29.60;;
19235;SDS011;9752;54.270;12.470;2022-10-22T12:24:13;41.27;;;29.43;;
19235;SDS011;9752;54.270;12.470;2022-10-22T12:29:19;39.30;;;28.97;;
19235;SDS011;9752;54.270;12.470;2022-10-22T12:34:23;43.67;;;30.17;;
19235;SDS011;9752;54.270;12.470;2022-10-22T12:39:25;38.90;;;26.77;;
19235;SDS011;9752;54.270;12.470;2022-10-22T12:44:29;35.97;;;27.00;;
19235;SDS011;9752;54.270;12.470;2022-10-22T12:49:33;33.23;;;24.10;;
19235;SDS011;9752;54.270;12.470;2022-10-22T12:54:39;33.53;;;25.23;;
19235;SDS011;9752;54.270;12.470;2022-10-22T12:59:43;35.50;;;25.47;;
19235;SDS011;9752;54.270;12.470;2022-10-22T13:05:11;37.30;;;26.30;;
19235;SDS011;9752;54.270;12.470;2022-10-22T13:10:22;36.63;;;27.73;;
19235;SDS011;9752;54.270;12.470;2022-10-22T13:15:34;38.27;;;28.43;;
19235;SDS011;9752;54.270;12.470;2022-10-22T13:20:48;40.90;;;30.67;;
19235;SDS011;9752;54.270;12.470;2022-10-22T13:25:58;44.87;;;30.93;;
19235;SDS011;9752;54.270;12.470;2022-10-22T13:31:10;49.10;;;32.13;;
19235;SDS011;9752;54.270;12.470;2022-10-22T13:36:16;57.17;;;29.17;;
19235;SDS011;9752;54.270;12.470;2022-10-22T13:41:19;79.33;;;30.83;;
19235;SDS011;9752;54.270;12.470;2022-10-22T13:46:23;141.13;;;32.43;;
19235;SDS011;9752;54.270;12.470;2022-10-22T13:51:27;166.80;;;41.37;;
19235;SDS011;9752;54.270;12.470;2022-10-22T13:56:33;63.37;;;26.27;;
19235;SDS011;9752;54.270;12.470;2022-10-22T14:01:37;99.90;;;28.87;;
19235;SDS011;9752;54.270;12.470;2022-10-22T14:06:39;70.33;;;25.20;;
19235;SDS011;9752;54.270;12.470;2022-10-22T14:11:40;46.90;;;24.17;;
19235;SDS011;9752;54.270;12.470;2022-10-22T14:16:43;101.97;;;27.10;;
19235;SDS011;9752;54.270;12.470;2022-10-22T14:21:45;340.00;;;43.60;;
19235;SDS011;9752;54.270;12.470;2022-10-22T14:26:48;230.77;;;35.67;;
19235;SDS011;9752;54.270;12.470;2022-10-22T14:31:51;83.60;;;27.17;;
19235;SDS011;9752;54.270;12.470;2022-10-22T14:36:53;168.97;;;31.00;;
19235;SDS011;9752;54.270;12.470;2022-10-22T14:41:54;67.13;;;26.47;;
19235;SDS011;9752;54.270;12.470;2022-10-22T14:46:57;142.40;;;33.37;;
19235;SDS011;9752;54.270;12.470;2022-10-22T14:51:59;190.60;;;41.03;;
19235;SDS011;9752;54.270;12.470;2022-10-22T14:57:01;89.60;;;29.03;;
19235;SDS011;9752;54.270;12.470;2022-10-22T15:02:05;43.50;;;23.20;;
19235;SDS011;9752;54.270;12.470;2022-10-22T15:07:07;126.23;;;35.47;;
19235;SDS011;9752;54.270;12.470;2022-10-22T15:12:08;57.43;;;28.93;;
19235;SDS011;9752;54.270;12.470;2022-10-22T15:17:11;54.57;;;27.27;;
19235;SDS011;9752;54.270;12.470;2022-10-22T15:22:13;155.80;;;44.60;;
19235;SDS011;9752;54.270;12.470;2022-10-22T15:27:16;372.80;;;64.60;;
19235;SDS011;9752;54.270;12.470;2022-10-22T15:32:19;47.70;;;27.80;;
19235;SDS011;9752;54.270;12.470;2022-10-22T15:37:21;155.00;;;42.67;;
19235;SDS011;9752;54.270;12.470;2022-10-22T15:42:23;287.77;;;59.60;;
19235;SDS011;9752;54.270;12.470;2022-10-22T15:47:26;268.03;;;62.70;;
19235;SDS011;9752;54.270;12.470;2022-10-22T15:52:30;65.60;;;33.07;;
19235;SDS011;9752;54.270;12.470;2022-10-22T15:57:31;44.93;;;27.50;;
19235;SDS011;9752;54.270;12.470;2022-10-22T16:02:34;68.17;;;35.13;;
19235;SDS011;9752;54.270;12.470;2022-10-22T16:07:36;69.30;;;36.13;;
19235;SDS011;9752;54.270;12.470;2022-10-22T16:12:38;96.90;;;44.13;;
19235;SDS011;9752;54.270;12.470;2022-10-22T16:17:42;69.57;;;37.83;;
19235;SDS011;9752;54.270;12.470;2022-10-22T16:22:46;85.40;;;43.57;;
19235;SDS011;9752;54.270;12.470;2022-10-22T16:27:50;85.70;;;39.63;;
19235;SDS011;9752;54.270;12.470;2022-10-22T16:32:53;78.40;;;42.40;;
19235;SDS011;9752;54.270;12.470;2022-10-22T16:37:54;73.73;;;39.77;;
19235;SDS011;9752;54.270;12.470;2022-10-22T16:42:56;69.70;;;35.73;;
19235;SDS011;9752;54.270;12.470;2022-10-22T16:47:59;89.60;;;46.27;;
19235;SDS011;9752;54.270;12.470;2022-10-22T16:53:01;74.40;;;41.63;;
19235;SDS011;9752;54.270;12.470;2022-10-22T16:58:02;82.73;;;44.17;;
19235;SDS011;9752;54.270;12.470;2022-10-22T17:03:06;75.23;;;41.10;;
19235;SDS011;9752;54.270;12.470;2022-10-22T17:08:09;73.03;;;42.33;;
19235;SDS011;9752;54.270;12.470;2022-10-22T17:13:11;114.20;;;57.50;;
19235;SDS011;9752;54.270;12.470;2022-10-22T17:18:14;79.23;;;44.33;;
19235;SDS011;9752;54.270;12.470;2022-10-22T17:23:16;70.90;;;43.53;;
19235;SDS011;9752;54.270;12.470;2022-10-22T17:28:17;100.47;;;52.10;;
19235;SDS011;9752;54.270;12.470;2022-10-22T17:33:20;54.40;;;36.90;;
19235;SDS011;9752;54.270;12.470;2022-10-22T17:38:22;110.33;;;59.87;;
19235;SDS011;9752;54.270;12.470;2022-10-22T17:43:24;67.47;;;39.43;;
19235;SDS011;9752;54.270;12.470;2022-10-22T17:48:27;67.80;;;39.20;;
19235;SDS011;9752;54.270;12.470;2022-10-22T17:53:28;75.80;;;42.20;;
19235;SDS011;9752;54.270;12.470;2022-10-22T17:58:30;68.97;;;40.50;;
19235;SDS011;9752;54.270;12.470;2022-10-22T18:03:33;77.00;;;43.87;;
19235;SDS011;9752;54.270;12.470;2022-10-22T18:08:35;87.83;;;46.37;;
19235;SDS011;9752;54.270;12.470;2022-10-22T18:13:37;93.30;;;50.43;;
19235;SDS011;9752;54.270;12.470;2022-10-22T18:18:43;86.37;;;45.10;;
19235;SDS011;9752;54.270;12.470;2022-10-22T18:23:46;88.97;;;46.13;;
19235;SDS011;9752;54.270;12.470;2022-10-22T18:28:48;92.90;;;50.97;;
19235;SDS011;9752;54.270;12.470;2022-10-22T18:33:51;84.50;;;46.67;;
19235;SDS011;9752;54.270;12.470;2022-10-22T18:38:53;90.83;;;48.73;;
19235;SDS011;9752;54.270;12.470;2022-10-22T18:43:57;80.63;;;48.17;;
19235;SDS011;9752;54.270;12.470;2022-10-22T18:49:00;102.70;;;57.30;;
19235;SDS011;9752;54.270;12.470;2022-10-22T18:54:02;95.77;;;55.37;;
19235;SDS011;9752;54.270;12.470;2022-10-22T18:59:04;76.53;;;46.77;;
19235;SDS011;9752;54.270;12.470;2022-10-22T19:04:07;78.97;;;45.87;;
19235;SDS011;9752;54.270;12.470;2022-10-22T19:09:10;90.73;;;51.97;;
19235;SDS011;9752;54.270;12.470;2022-10-22T19:14:12;81.10;;;53.27;;
19235;SDS011;9752;54.270;12.470;2022-10-22T19:19:20;70.73;;;48.67;;
19235;SDS011;9752;54.270;12.470;2022-10-22T19:24:22;60.93;;;43.10;;
19235;SDS011;9752;54.270;12.470;2022-10-22T19:29:24;55.70;;;36.87;;
19235;SDS011;9752;54.270;12.470;2022-10-22T19:34:27;52.33;;;33.47;;
19235;SDS011;9752;54.270;12.470;2022-10-22T19:39:29;44.40;;;33.17;;
19235;SDS011;9752;54.270;12.470;2022-10-22T19:44:30;52.10;;;33.60;;
19235;SDS011;9752;54.270;12.470;2022-10-22T19:49:34;45.40;;;32.47;;
19235;SDS011;9752;54.270;12.470;2022-10-22T19:54:35;48.20;;;31.43;;
19235;SDS011;9752;54.270;12.470;2022-10-22T19:59:39;40.43;;;32.50;;
19235;SDS011;9752;54.270;12.470;2022-10-22T20:04:43;42.93;;;30.83;;
19235;SDS011;9752;54.270;12.470;2022-10-22T20:09:44;43.37;;;30.97;;
19235;SDS011;9752;54.270;12.470;2022-10-22T20:14:46;39.40;;;30.37;;
19235;SDS011;9752;54.270;12.470;2022-10-22T20:19:49;36.40;;;29.60;;
19235;SDS011;9752;54.270;12.470;2022-10-22T20:24:51;40.07;;;28.93;;
19235;SDS011;9752;54.270;12.470;2022-10-22T20:29:53;32.20;;;26.53;;
19235;SDS011;9752;54.270;12.470;2022-10-22T20:34:56;37.20;;;27.90;;
19235;SDS011;9752;54.270;12.470;2022-10-22T20:39:58;36.93;;;25.93;;
19235;SDS011;9752;54.270;12.470;2022-10-22T20:44:59;33.77;;;26.60;;
19235;SDS011;9752;54.270;12.470;2022-10-22T20:50:03;32.93;;;25.13;;
19235;SDS011;9752;54.270;12.470;2022-10-22T20:55:05;28.73;;;24.73;;
19235;SDS011;9752;54.270;12.470;2022-10-22T21:00:07;31.83;;;25.27;;
19235;SDS011;9752;54.270;12.470;2022-10-22T21:05:11;34.20;;;25.57;;
19235;SDS011;9752;54.270;12.470;2022-10-22T21:10:13;27.37;;;22.97;;
19235;SDS011;9752;54.270;12.470;2022-10-22T21:15:15;22.03;;;19.63;;
19235;SDS011;9752;54.270;12.470;2022-10-22T21:20:18;29.10;;;20.20;;
19235;SDS011;9752;54.270;12.470;2022-10-22T21:25:20;20.10;;;16.43;;
19235;SDS011;9752;54.270;12.470;2022-10-22T21:30:22;18.07;;;12.17;;
19235;SDS011;9752;54.270;12.470;2022-10-22T21:35:25;23.40;;;8.73;;
19235;SDS011;9752;54.270;12.470;2022-10-22T21:40:26;9.63;;;6.03;;
19235;SDS011;9752;54.270;12.470;2022-10-22T21:45:28;9.70;;;5.50;;
19235;SDS011;9752;54.270;12.470;2022-10-22T21:50:31;6.50;;;4.23;;
19235;SDS011;9752;54.270;12.470;2022-10-22T21:55:35;11.63;;;4.90;;
19235;SDS011;9752;54.270;12.470;2022-10-22T22:00:38;13.23;;;6.20;;
19235;SDS011;9752;54.270;12.470;2022-10-22T22:05:41;9.30;;;3.93;;
19235;SDS011;9752;54.270;12.470;2022-10-22T22:10:43;8.07;;;5.87;;
19235;SDS011;9752;54.270;12.470;2022-10-22T22:15:44;9.30;;;5.90;;
19235;SDS011;9752;54.270;12.470;2022-10-22T22:20:47;12.63;;;7.03;;
19235;SDS011;9752;54.270;12.470;2022-10-22T22:25:49;9.07;;;5.67;;
19235;SDS011;9752;54.270;12.470;2022-10-22T22:30:51;14.23;;;6.17;;
19235;SDS011;9752;54.270;12.470;2022-10-22T22:35:57;11.83;;;6.43;;
19235;SDS011;9752;54.270;12.470;2022-10-22T22:40:59;12.60;;;6.57;;
19235;SDS011;9752;54.270;12.470;2022-10-22T22:46:02;9.07;;;6.53;;
19235;SDS011;9752;54.270;12.470;2022-10-22T22:51:07;7.63;;;5.67;;
19235;SDS011;9752;54.270;12.470;2022-10-22T22:56:09;9.33;;;4.60;;
19235;SDS011;9752;54.270;12.470;2022-10-22T23:01:14;7.10;;;3.90;;
19235;SDS011;9752;54.270;12.470;2022-10-22T23:06:18;7.90;;;4.53;;
19235;SDS011;9752;54.270;12.470;2022-10-22T23:11:20;8.43;;;4.20;;
19235;SDS011;9752;54.270;12.470;2022-10-22T23:16:24;6.53;;;4.50;;
19235;SDS011;9752;54.270;12.470;2022-10-22T23:21:29;5.73;;;4.80;;
19235;SDS011;9752;54.270;12.470;2022-10-22T23:26:32;10.13;;;5.93;;
19235;SDS011;9752;54.270;12.470;2022-10-22T23:31:37;6.73;;;5.00;;
19235;SDS011;9752;54.270;12.470;2022-10-22T23:36:40;13.53;;;4.63;;
19235;SDS011;9752;54.270;12.470;2022-10-22T23:41:41;10.97;;;5.43;;
19235;SDS011;9752;54.270;12.470;2022-10-22T23:46:43;10.23;;;6.53;;
19235;SDS011;9752;54.270;12.470;2022-10-22T23:51:46;11.10;;;6.50;;
19235;SDS011;9752;54.270;12.470;2022-10-22T23:56:48;14.80;;;6.77;;
